Time;durP1;ratioP1;P1;durP2;ratioP2;P2;SDS_P1;SDS_P2;PMS_P1;PMS_P2;Temp;Humidity;BMP_temperature;BMP_pressure;BME280_temperature;BME280_humidity;BME280_pressure;Samples;Min_cycle;Max_cycle;Signal;HPM_P1;HPM_P2
2022/01/25 00:16:12;;;;;;;17.00;14.00;;;4.60;99.90;;;;;;5071732;28;20207;-55
2022/01/25 00:24:34;;;;;;;16.63;14.13;;;4.40;99.90;;;;;;5114670;28;20249;-56
2022/01/25 00:27:14;;;;;;;16.67;14.57;;;4.50;99.90;;;;;;5119080;27;20199;-56
2022/01/25 00:29:58;;;;;;;17.00;14.37;;;4.60;99.90;;;;;;5124301;27;20668;-55
2022/01/25 00:32:26;;;;;;;19.07;15.10;;;4.50;99.90;;;;;;5094415;28;20227;-56
2022/01/25 00:34:55;;;;;;;14.80;12.57;;;4.50;99.90;;;;;;5103957;28;20218;-56
2022/01/25 00:37:23;;;;;;;18.07;15.23;;;4.50;99.90;;;;;;5114241;28;20203;-55
2022/01/25 00:39:51;;;;;;;20.13;16.10;;;4.40;99.90;;;;;;5114387;28;20222;-55
2022/01/25 00:42:21;;;;;;;17.50;14.73;;;4.40;99.90;;;;;;5122965;27;20222;-56
2022/01/25 00:44:49;;;;;;;15.37;13.57;;;4.50;99.90;;;;;;5115627;27;20199;-56
2022/01/25 00:47:17;;;;;;;17.10;13.27;;;4.40;99.90;;;;;;5114179;28;20268;-55
2022/01/25 00:49:51;;;;;;;16.57;14.07;;;4.40;99.90;;;;;;5113895;28;20198;-56
2022/01/25 00:53:52;;;;;;;17.60;13.83;;;4.40;99.90;;;;;;5113374;28;20242;-55
2022/01/25 00:55:09;;;;;;;15.63;13.63;;;4.40;99.90;;;;;;5114152;28;20249;-55
2022/01/25 00:57:39;;;;;;;19.50;14.60;;;4.40;99.90;;;;;;5113967;28;20206;-55
2022/01/25 01:00:10;;;;;;;15.57;13.60;;;4.40;99.90;;;;;;5099944;28;20229;-55
2022/01/25 01:02:38;;;;;;;16.23;13.53;;;4.40;99.90;;;;;;5093142;28;20287;-56
2022/01/25 01:05:07;;;;;;;16.90;13.40;;;4.40;99.90;;;;;;5093708;28;20292;-55
2022/01/25 01:07:35;;;;;;;14.63;13.03;;;4.50;99.90;;;;;;5094223;28;20213;-55
2022/01/25 01:10:05;;;;;;;15.60;13.93;;;4.50;99.90;;;;;;5113583;28;20270;-56
2022/01/25 01:13:07;;;;;;;16.27;13.60;;;4.50;99.90;;;;;;5114230;28;20278;-55
2022/01/25 01:15:39;;;;;;;18.57;14.80;;;4.50;99.90;;;;;;5113332;28;20261;-54
2022/01/25 01:29:26;;;;;;;18.97;15.07;;;4.50;99.90;;;;;;5128463;27;20235;-55
2022/01/25 01:32:04;;;;;;;19.57;16.00;;;4.40;99.90;;;;;;5113103;28;20237;-56
2022/01/25 01:40:20;;;;;;;16.07;14.30;;;4.30;99.90;;;;;;5110023;28;20301;-56
2022/01/25 01:45:43;;;;;;;19.33;14.90;;;4.40;99.90;;;;;;5112458;28;20240;-55
2022/01/25 01:48:26;;;;;;;15.20;13.60;;;4.40;99.90;;;;;;5113291;28;20205;-55
2022/01/25 01:50:57;;;;;;;16.13;13.50;;;4.40;99.90;;;;;;5113013;28;20276;-53
2022/01/25 01:53:25;;;;;;;18.83;16.63;;;4.50;99.90;;;;;;5113066;28;20266;-56
2022/01/25 01:55:54;;;;;;;21.67;16.03;;;4.50;99.90;;;;;;5112906;28;20200;-56
2022/01/25 01:58:22;;;;;;;18.23;14.80;;;4.40;99.90;;;;;;5112923;28;20255;-56
2022/01/25 02:00:51;;;;;;;17.37;15.10;;;4.40;99.90;;;;;;5111647;28;20263;-55
2022/01/25 02:03:21;;;;;;;19.33;15.43;;;4.40;99.90;;;;;;5112789;28;20212;-55
2022/01/25 02:05:50;;;;;;;20.60;15.67;;;4.50;99.90;;;;;;5105759;28;20209;-56
2022/01/25 02:08:18;;;;;;;18.63;15.73;;;4.50;99.90;;;;;;5091874;28;20556;-56
2022/01/25 02:10:46;;;;;;;19.33;14.53;;;4.50;99.90;;;;;;5105004;28;20712;-56
2022/01/25 02:13:14;;;;;;;21.67;16.00;;;4.50;99.90;;;;;;5112151;28;20232;-55
2022/01/25 02:15:46;;;;;;;17.47;15.13;;;4.50;99.90;;;;;;5112490;28;20242;-58
2022/01/25 02:23:49;;;;;;;17.57;14.43;;;4.30;99.90;;;;;;5111891;28;20219;-55
2022/01/25 02:26:17;;;;;;;16.90;15.07;;;4.30;99.90;;;;;;5112391;28;20234;-56
2022/01/25 02:28:46;;;;;;;19.33;15.73;;;4.40;99.90;;;;;;5131505;27;20210;-55
2022/01/25 02:31:16;;;;;;;18.83;15.70;;;4.40;99.90;;;;;;5132690;27;20282;-55
2022/01/25 02:33:45;;;;;;;17.87;15.67;;;4.40;99.90;;;;;;5132985;27;20228;-55
2022/01/25 02:36:17;;;;;;;18.87;15.70;;;4.40;99.90;;;;;;5119121;27;20259;-56
2022/01/25 02:38:45;;;;;;;20.20;16.13;;;4.30;99.90;;;;;;5096292;28;20192;-55
2022/01/25 02:41:13;;;;;;;23.50;17.10;;;4.40;99.90;;;;;;5090996;28;20275;-55
2022/01/25 02:43:46;;;;;;;22.57;16.23;;;4.40;99.90;;;;;;5121963;27;20243;-52
2022/01/25 02:48:29;;;;;;;19.03;16.13;;;4.40;99.90;;;;;;5112152;28;20236;-55
2022/01/25 02:49:10;;;;;;;20.93;17.40;;;4.50;99.90;;;;;;5112160;28;20254;-54
2022/01/25 02:51:42;;;;;;;21.73;18.20;;;4.50;99.90;;;;;;5111439;28;20231;-54
2022/01/25 02:54:10;;;;;;;22.47;17.47;;;4.50;99.90;;;;;;5111662;28;20202;-53
2022/01/25 02:56:40;;;;;;;26.30;18.73;;;4.50;99.90;;;;;;5111685;28;20207;-53
2022/01/25 02:59:08;;;;;;;21.80;17.60;;;4.40;99.90;;;;;;5105949;28;20248;-55
2022/01/25 03:01:37;;;;;;;21.07;16.47;;;4.30;99.90;;;;;;5104497;28;20431;-53
2022/01/25 03:04:07;;;;;;;21.33;17.73;;;4.30;99.90;;;;;;5111804;28;20437;-54
2022/01/25 03:06:36;;;;;;;21.67;17.80;;;4.40;99.90;;;;;;5111691;28;20209;-55
2022/01/25 03:09:06;;;;;;;25.23;19.53;;;4.40;99.90;;;;;;5111607;28;20205;-56
2022/01/25 03:11:35;;;;;;;21.73;17.03;;;4.40;99.90;;;;;;5110911;28;20226;-54
2022/01/25 03:14:08;;;;;;;20.47;16.27;;;4.30;99.90;;;;;;5111253;28;20208;-55
2022/01/25 03:16:42;;;;;;;21.07;17.40;;;4.20;99.90;;;;;;5111142;28;20204;-56
2022/01/25 03:21:54;;;;;;;23.77;18.53;;;4.20;99.90;;;;;;5111037;28;20229;-54
2022/01/25 03:24:24;;;;;;;23.87;18.57;;;4.30;99.90;;;;;;5111474;28;20274;-55
2022/01/25 03:26:52;;;;;;;21.93;17.07;;;4.30;99.90;;;;;;5114625;28;20255;-56
2022/01/25 03:29:20;;;;;;;21.47;17.23;;;4.20;99.90;;;;;;5131584;28;20258;-55
2022/01/25 03:31:48;;;;;;;19.90;16.80;;;4.20;99.90;;;;;;5131808;28;20232;-55
2022/01/25 03:34:17;;;;;;;26.67;19.17;;;4.20;99.90;;;;;;5132066;27;20204;-55
2022/01/25 03:36:45;;;;;;;23.50;18.83;;;4.20;99.90;;;;;;5113938;28;20202;-60
2022/01/25 03:39:14;;;;;;;24.40;17.43;;;4.10;99.90;;;;;;5111039;28;20258;-55
2022/01/25 03:41:43;;;;;;;20.10;16.50;;;4.10;99.90;;;;;;5113688;28;20273;-55
2022/01/25 03:44:12;;;;;;;22.80;17.00;;;4.20;99.90;;;;;;5117960;27;20232;-56
2022/01/25 03:46:54;;;;;;;21.77;17.80;;;4.20;99.90;;;;;;5111501;28;20199;-55
2022/01/25 03:52:09;;;;;;;22.63;17.43;;;4.20;99.90;;;;;;5110284;28;20242;-55
2022/01/25 03:54:38;;;;;;;22.63;17.17;;;4.10;99.90;;;;;;5111520;28;20212;-55
2022/01/25 03:57:07;;;;;;;22.27;16.33;;;4.00;99.90;;;;;;5106795;28;20203;-55
2022/01/25 03:59:35;;;;;;;21.20;16.60;;;4.00;99.90;;;;;;5110847;28;20701;-55
2022/01/25 04:02:04;;;;;;;21.73;16.63;;;4.10;99.90;;;;;;5110252;28;20353;-56
2022/01/25 04:04:34;;;;;;;22.53;17.73;;;4.20;99.90;;;;;;5111210;28;20204;-55
2022/01/25 04:07:08;;;;;;;24.63;18.37;;;4.20;99.90;;;;;;5111306;28;20584;-54
2022/01/25 04:09:38;;;;;;;24.03;18.50;;;4.20;99.90;;;;;;5110996;28;20686;-54
2022/01/25 04:12:09;;;;;;;22.40;17.87;;;4.30;99.90;;;;;;5129651;28;20797;-56
2022/01/25 04:14:37;;;;;;;24.17;18.17;;;4.30;99.90;;;;;;5126739;27;20204;-55
2022/01/25 04:17:09;;;;;;;22.30;17.70;;;4.20;99.90;;;;;;5111449;28;20207;-54
2022/01/25 04:19:41;;;;;;;20.20;16.60;;;4.20;99.90;;;;;;5110944;28;20205;-55
2022/01/25 04:25:13;;;;;;;25.87;17.80;;;4.30;99.90;;;;;;5121610;27;20265;-55
2022/01/25 04:27:43;;;;;;;22.83;18.43;;;4.30;99.90;;;;;;5135303;27;20677;-55
2022/01/25 04:30:11;;;;;;;22.57;17.63;;;4.20;99.90;;;;;;5133873;27;20661;-55
2022/01/25 04:32:47;;;;;;;22.83;17.47;;;4.20;99.90;;;;;;5134481;27;20255;-55
2022/01/25 04:35:42;;;;;;;21.30;17.10;;;4.20;99.90;;;;;;5129777;27;20196;-55
2022/01/25 04:49:18;;;;;;;26.07;19.17;;;4.10;99.90;;;;;;5114448;28;20262;-56
2022/01/25 04:51:52;;;;;;;29.47;19.13;;;4.00;99.90;;;;;;5114106;28;20227;-55
2022/01/25 04:54:31;;;;;;;30.57;20.77;;;4.00;99.90;;;;;;5098833;27;20205;-55
2022/01/25 04:57:12;;;;;;;22.80;18.70;;;4.10;99.90;;;;;;5093720;28;20196;-55
2022/01/25 04:59:48;;;;;;;24.93;20.03;;;4.10;99.90;;;;;;5093131;28;20272;-56
2022/01/25 05:02:21;;;;;;;31.20;22.23;;;4.10;99.90;;;;;;5093479;28;20265;-55
2022/01/25 05:04:54;;;;;;;28.10;20.60;;;4.10;99.90;;;;;;5093550;28;20876;-55
2022/01/25 05:07:32;;;;;;;26.97;20.50;;;4.10;99.90;;;;;;5115389;27;20258;-55
2022/01/25 05:10:02;;;;;;;31.90;21.40;;;4.20;99.90;;;;;;5127207;27;20200;-55
2022/01/25 05:12:42;;;;;;;28.53;20.97;;;4.10;99.90;;;;;;5114029;28;20286;-55
2022/01/25 05:16:00;;;;;;;34.67;21.77;;;4.10;99.90;;;;;;5119419;27;20294;-55
2022/01/25 05:18:39;;;;;;;30.47;20.23;;;4.10;99.90;;;;;;5113967;28;20239;-55
2022/01/25 05:23:53;;;;;;;26.73;19.80;;;4.20;99.90;;;;;;5134275;27;20215;-56
2022/01/25 05:26:21;;;;;;;24.33;18.73;;;4.20;99.90;;;;;;5134639;27;20206;-56
2022/01/25 05:28:49;;;;;;;27.37;19.10;;;4.20;99.90;;;;;;5132034;27;20205;-55
2022/01/25 05:31:18;;;;;;;24.93;18.67;;;4.20;99.90;;;;;;5113694;28;20217;-54
2022/01/25 05:33:47;;;;;;;28.40;19.23;;;4.20;99.90;;;;;;5113006;28;20221;-56
2022/01/25 05:36:17;;;;;;;26.73;19.27;;;4.20;99.90;;;;;;5116701;27;20665;-55
2022/01/25 05:38:47;;;;;;;26.93;19.10;;;4.10;99.90;;;;;;5112280;28;20205;-56
2022/01/25 05:41:15;;;;;;;30.93;20.70;;;4.10;99.90;;;;;;5113612;27;20274;-55
2022/01/25 05:44:12;;;;;;;32.30;21.73;;;4.00;99.90;;;;;;5113086;28;20625;-55
2022/01/25 05:46:47;;;;;;;27.43;19.80;;;4.00;99.90;;;;;;5113273;28;20587;-55
2022/01/25 05:49:15;;;;;;;29.00;19.60;;;4.00;99.90;;;;;;5117055;27;20221;-54
2022/01/25 05:51:43;;;;;;;32.80;21.50;;;4.00;99.90;;;;;;5112445;28;20220;-56
2022/01/25 05:54:11;;;;;;;30.10;19.07;;;4.10;99.90;;;;;;5112952;28;20657;-55
2022/01/25 05:56:39;;;;;;;28.43;19.27;;;4.10;99.90;;;;;;5113093;28;20239;-56
2022/01/25 05:59:07;;;;;;;29.53;18.67;;;4.10;99.90;;;;;;5112757;28;20276;-55
2022/01/25 06:01:36;;;;;;;26.93;18.97;;;4.10;99.90;;;;;;5112682;28;20285;-55
2022/01/25 06:04:07;;;;;;;30.30;21.83;;;4.10;99.90;;;;;;5127707;27;20234;-56
2022/01/25 06:06:35;;;;;;;34.43;21.37;;;4.10;99.90;;;;;;5133830;27;20187;-55
2022/01/25 06:09:03;;;;;;;28.03;19.90;;;4.00;99.90;;;;;;5091657;28;20227;-56
2022/01/25 06:11:32;;;;;;;26.33;19.30;;;4.00;99.90;;;;;;5112403;28;20223;-55
2022/01/25 06:14:00;;;;;;;31.87;20.43;;;4.00;99.90;;;;;;5112050;28;20676;-54
2022/01/25 06:16:29;;;;;;;28.23;19.37;;;4.00;99.90;;;;;;5113410;28;20209;-55
2022/01/25 06:18:57;;;;;;;29.27;20.30;;;4.10;99.90;;;;;;5132994;27;20211;-55
2022/01/25 06:21:27;;;;;;;34.23;21.43;;;4.10;99.90;;;;;;5130717;27;20227;-55
2022/01/25 06:23:55;;;;;;;29.47;20.73;;;4.00;99.90;;;;;;5112086;28;20742;-56
2022/01/25 06:26:23;;;;;;;26.67;19.37;;;4.00;99.90;;;;;;5112297;28;20249;-55
2022/01/25 06:28:51;;;;;;;30.97;20.07;;;4.00;99.90;;;;;;5132446;27;20196;-56
2022/01/25 06:31:20;;;;;;;27.97;19.27;;;4.00;99.90;;;;;;5132356;27;20248;-55
2022/01/25 06:33:48;;;;;;;30.53;20.17;;;4.10;99.90;;;;;;5132529;27;20257;-55
2022/01/25 06:36:18;;;;;;;27.53;19.67;;;4.00;99.90;;;;;;5118424;27;20233;-55
2022/01/25 06:38:47;;;;;;;31.73;19.50;;;4.00;99.90;;;;;;5102999;28;20209;-54
2022/01/25 06:41:17;;;;;;;31.03;20.70;;;4.00;99.90;;;;;;5095970;28;20316;-54
2022/01/25 06:43:46;;;;;;;30.03;20.20;;;4.00;99.90;;;;;;5103384;28;20256;-56
2022/01/25 06:46:14;;;;;;;26.20;18.47;;;4.00;99.90;;;;;;5111723;28;20205;-55
2022/01/25 06:48:42;;;;;;;29.97;20.73;;;4.10;99.90;;;;;;5130275;27;20222;-55
2022/01/25 06:51:11;;;;;;;25.20;18.33;;;4.10;99.90;;;;;;5123908;27;20745;-54
2022/01/25 06:53:39;;;;;;;32.60;20.40;;;4.00;99.90;;;;;;5111590;28;20194;-55
2022/01/25 06:56:09;;;;;;;30.53;20.47;;;4.00;99.90;;;;;;5110744;28;20248;-55
2022/01/25 06:58:38;;;;;;;30.87;19.50;;;3.90;99.90;;;;;;5110714;28;20204;-55
2022/01/25 07:01:06;;;;;;;40.53;20.43;;;3.80;99.90;;;;;;5115188;27;20704;-55
2022/01/25 07:03:34;;;;;;;26.60;17.43;;;3.80;99.90;;;;;;5126105;27;20201;-54
2022/01/25 07:06:03;;;;;;;28.33;19.37;;;3.80;99.90;;;;;;5111167;28;20205;-55
2022/01/25 07:08:31;;;;;;;33.33;20.70;;;3.80;99.90;;;;;;5111330;28;20204;-55
2022/01/25 07:10:59;;;;;;;32.80;19.83;;;3.80;99.90;;;;;;5111539;28;20223;-55
2022/01/25 07:13:28;;;;;;;30.17;19.03;;;3.80;99.90;;;;;;5111883;28;20196;-55
2022/01/25 07:15:57;;;;;;;31.67;20.00;;;3.80;99.90;;;;;;5122869;27;20236;-55
2022/01/25 07:18:25;;;;;;;33.13;20.33;;;3.80;99.90;;;;;;5132064;27;20246;-55
2022/01/25 07:20:53;;;;;;;32.90;19.63;;;3.80;99.90;;;;;;5131147;27;21027;-55
2022/01/25 07:23:21;;;;;;;32.03;19.23;;;3.80;99.90;;;;;;5131643;27;20295;-55
2022/01/25 07:25:49;;;;;;;30.60;18.10;;;3.70;99.90;;;;;;5132043;27;20208;-54
2022/01/25 07:28:18;;;;;;;40.47;24.10;;;3.70;99.90;;;;;;5131596;27;20224;-55
2022/01/25 07:30:47;;;;;;;30.97;19.60;;;3.80;99.90;;;;;;5131843;28;20212;-54
2022/01/25 07:33:32;;;;;;;37.77;19.73;;;3.80;99.90;;;;;;5112217;27;20292;-55
2022/01/25 07:36:17;;;;;;;27.10;18.77;;;3.70;99.90;;;;;;5110706;28;20229;-55
2022/01/25 07:38:46;;;;;;;33.93;19.90;;;3.70;99.90;;;;;;5111266;28;20292;-55
2022/01/25 07:41:23;;;;;;;35.17;19.63;;;3.70;99.90;;;;;;5110537;28;20718;-54
2022/01/25 07:43:51;;;;;;;29.87;17.53;;;3.70;99.90;;;;;;5111381;28;20211;-55
2022/01/25 07:46:26;;;;;;;36.63;21.67;;;3.60;99.90;;;;;;5111220;28;20872;-55
2022/01/25 07:48:59;;;;;;;33.70;19.40;;;3.60;99.90;;;;;;5110077;28;20213;-54
2022/01/25 07:51:28;;;;;;;29.57;19.07;;;3.60;99.90;;;;;;5110783;28;20282;-55
2022/01/25 07:53:59;;;;;;;29.07;18.23;;;3.60;99.90;;;;;;5110909;28;20252;-55
2022/01/25 07:56:27;;;;;;;24.93;16.20;;;3.70;99.90;;;;;;5111482;28;20204;-55
2022/01/25 07:58:55;;;;;;;23.87;14.93;;;3.60;99.90;;;;;;5117301;28;20202;-55
2022/01/25 08:01:26;;;;;;;23.60;15.13;;;3.70;99.90;;;;;;5114531;28;20258;-55
2022/01/25 08:03:55;;;;;;;24.30;14.83;;;3.70;99.90;;;;;;5115078;28;20605;-55
2022/01/25 08:06:43;;;;;;;24.10;14.73;;;3.70;99.90;;;;;;5112862;27;20242;-55
2022/01/25 08:09:25;;;;;;;25.13;15.53;;;3.60;99.90;;;;;;5103803;28;20214;-55
2022/01/25 08:12:08;;;;;;;25.27;15.10;;;3.60;99.90;;;;;;5125638;27;20227;-55
2022/01/25 08:14:58;;;;;;;25.17;14.53;;;3.60;99.90;;;;;;5051539;28;20201;-54
2022/01/25 08:17:59;;;;;;;25.87;16.57;;;3.60;99.90;;;;;;4992744;28;20262;-54
2022/01/25 08:20:41;;;;;;;21.60;13.37;;;3.60;99.90;;;;;;4963401;28;20284;-55
2022/01/25 08:23:26;;;;;;;21.33;13.93;;;3.60;99.90;;;;;;4972611;28;20240;-54
2022/01/25 08:25:55;;;;;;;22.17;13.27;;;3.60;99.90;;;;;;4980818;28;20295;-54
2022/01/25 08:28:58;;;;;;;19.17;12.20;;;3.60;99.90;;;;;;4964678;28;20210;-55
2022/01/25 08:31:43;;;;;;;21.37;13.40;;;3.70;99.90;;;;;;4972762;28;20232;-55
2022/01/25 08:34:18;;;;;;;17.83;12.20;;;3.70;99.90;;;;;;4972719;28;20219;-55
2022/01/25 08:37:09;;;;;;;19.73;12.63;;;3.80;99.90;;;;;;4921146;28;20265;-55
2022/01/25 08:39:43;;;;;;;21.23;13.50;;;3.70;99.90;;;;;;4976236;28;20214;-54
2022/01/25 08:42:25;;;;;;;20.63;12.63;;;3.70;99.90;;;;;;4988884;28;20236;-54
2022/01/25 08:45:17;;;;;;;18.80;13.27;;;3.70;99.90;;;;;;4949220;29;20249;-55
2022/01/25 08:47:59;;;;;;;18.13;12.67;;;3.70;99.90;;;;;;4967738;28;20219;-55
2022/01/25 08:50:30;;;;;;;14.43;10.47;;;3.70;99.90;;;;;;5028462;28;20742;-56
2022/01/25 08:53:21;;;;;;;15.57;10.60;;;3.70;99.90;;;;;;5058133;28;20200;-55
2022/01/25 08:55:56;;;;;;;13.57;10.33;;;3.60;99.90;;;;;;5063338;28;20300;-56
2022/01/25 08:58:42;;;;;;;14.10;9.50;;;3.60;99.90;;;;;;5086433;28;20218;-54
2022/01/25 09:01:10;;;;;;;13.83;9.63;;;3.50;99.90;;;;;;5060470;28;20257;-54
2022/01/25 09:03:38;;;;;;;12.53;9.07;;;3.60;99.90;;;;;;5070764;28;20302;-55
2022/01/25 09:06:09;;;;;;;13.43;9.23;;;3.60;99.90;;;;;;5065034;28;20202;-55
2022/01/25 09:08:37;;;;;;;12.63;9.03;;;3.70;99.90;;;;;;5053634;28;20208;-55
2022/01/25 09:11:06;;;;;;;17.63;9.07;;;3.70;99.90;;;;;;5062676;28;20231;-55
2022/01/25 09:13:35;;;;;;;12.17;8.53;;;3.70;99.90;;;;;;5070231;28;20203;-54
2022/01/25 09:16:04;;;;;;;12.50;9.03;;;3.80;99.90;;;;;;5070343;28;20248;-55
2022/01/25 09:18:33;;;;;;;15.90;10.33;;;3.90;99.90;;;;;;5070621;28;20209;-54
2022/01/25 09:21:01;;;;;;;13.93;9.63;;;4.00;99.90;;;;;;5070376;28;20722;-55
2022/01/25 09:23:31;;;;;;;15.93;10.53;;;3.90;99.90;;;;;;5070265;28;20311;-55
2022/01/25 09:25:59;;;;;;;17.40;9.70;;;3.90;99.90;;;;;;5070509;28;20233;-55
2022/01/25 09:28:27;;;;;;;14.13;10.17;;;4.00;99.90;;;;;;5064371;28;20238;-56
2022/01/25 09:30:55;;;;;;;11.57;8.10;;;4.00;99.90;;;;;;5098211;28;20277;-55
2022/01/25 09:33:25;;;;;;;14.30;9.03;;;3.90;99.90;;;;;;5113686;28;20212;-54
2022/01/25 09:35:54;;;;;;;10.07;7.60;;;3.90;99.90;;;;;;5108204;28;20295;-54
2022/01/25 09:38:23;;;;;;;11.60;8.63;;;4.00;99.90;;;;;;5130678;27;20211;-55
2022/01/25 09:40:53;;;;;;;12.70;8.00;;;4.00;99.90;;;;;;5133351;27;20226;-56
2022/01/25 09:43:23;;;;;;;11.00;8.23;;;4.00;99.90;;;;;;5132743;27;20247;-55
2022/01/25 09:45:52;;;;;;;12.53;8.30;;;4.10;99.90;;;;;;5133700;27;20214;-55
2022/01/25 09:48:21;;;;;;;12.03;8.17;;;4.10;99.90;;;;;;5133195;27;20214;-54
2022/01/25 09:50:49;;;;;;;11.23;7.97;;;4.20;99.90;;;;;;5133489;27;20231;-55
2022/01/25 09:53:18;;;;;;;11.67;8.37;;;4.20;99.90;;;;;;5128677;27;20214;-55
2022/01/25 09:55:50;;;;;;;9.33;7.27;;;4.20;99.90;;;;;;5133937;27;20203;-56
2022/01/25 09:58:19;;;;;;;17.17;10.73;;;4.20;99.90;;;;;;5116003;27;20265;-55
2022/01/25 10:00:49;;;;;;;27.77;17.67;;;4.20;99.90;;;;;;5093284;28;20235;-55
2022/01/25 10:03:23;;;;;;;11.37;7.93;;;4.20;99.90;;;;;;5099454;28;20239;-55
2022/01/25 10:05:55;;;;;;;11.13;7.70;;;4.30;99.90;;;;;;5092569;28;20193;-55
2022/01/25 10:08:25;;;;;;;9.70;7.43;;;4.20;99.90;;;;;;5092241;28;20595;-54
2022/01/25 10:10:55;;;;;;;12.27;7.90;;;4.30;99.90;;;;;;5121376;27;20263;-56
2022/01/25 10:13:27;;;;;;;11.67;7.63;;;4.30;99.90;;;;;;5132050;27;20201;-56
2022/01/25 10:16:00;;;;;;;12.63;8.13;;;4.30;99.90;;;;;;5132524;27;20253;-54
2022/01/25 10:18:44;;;;;;;12.10;8.60;;;4.30;99.90;;;;;;5132246;27;20207;-55
2022/01/25 10:21:15;;;;;;;12.97;8.57;;;4.30;99.90;;;;;;5132674;27;20245;-53
2022/01/25 10:24:00;;;;;;;12.33;8.70;;;4.20;99.90;;;;;;5131640;27;20452;-53
2022/01/25 10:26:31;;;;;;;10.07;7.13;;;4.30;99.90;;;;;;5133352;27;20193;-54
2022/01/25 10:29:13;;;;;;;11.80;8.20;;;4.20;99.90;;;;;;5105609;28;20208;-55
2022/01/25 10:31:44;;;;;;;12.63;8.37;;;4.20;99.90;;;;;;5111296;27;20255;-54
2022/01/25 10:34:15;;;;;;;10.93;7.63;;;4.20;99.90;;;;;;5096603;28;20677;-53
2022/01/25 10:36:46;;;;;;;16.60;13.07;;;4.20;99.90;;;;;;5096055;28;20243;-53
2022/01/25 10:39:19;;;;;;;29.37;23.90;;;4.20;99.90;;;;;;5091228;28;20567;-54
2022/01/25 10:41:48;;;;;;;16.63;13.13;;;4.30;99.90;;;;;;5091323;28;20654;-54
2022/01/25 10:44:17;;;;;;;24.60;17.60;;;4.40;99.90;;;;;;5113566;27;20253;-52
2022/01/25 10:46:47;;;;;;;23.00;15.50;;;4.40;99.90;;;;;;5132185;27;20210;-54
2022/01/25 10:49:16;;;;;;;13.63;9.43;;;4.40;99.90;;;;;;5120896;27;20209;-56
2022/01/25 10:51:46;;;;;;;12.83;9.10;;;4.40;99.90;;;;;;5111471;28;20219;-54
2022/01/25 10:54:16;;;;;;;20.17;11.10;;;4.40;99.90;;;;;;5114990;27;20206;-55
2022/01/25 10:56:46;;;;;;;91.93;45.50;;;4.40;99.90;;;;;;5110505;28;20216;-56
2022/01/25 10:59:19;;;;;;;49.73;27.53;;;4.40;99.90;;;;;;5105671;28;20267;-55
2022/01/25 11:01:51;;;;;;;24.20;14.70;;;4.40;99.90;;;;;;5115865;27;20228;-53
2022/01/25 11:04:23;;;;;;;60.00;30.97;;;4.50;99.90;;;;;;5111616;28;20220;-54
2022/01/25 11:06:56;;;;;;;15.80;9.43;;;4.50;99.90;;;;;;5112294;28;20193;-54
2022/01/25 11:09:27;;;;;;;17.87;12.50;;;4.50;99.90;;;;;;5113084;27;20270;-54
2022/01/25 11:11:57;;;;;;;15.03;10.87;;;4.50;99.90;;;;;;5132311;27;20285;-55
2022/01/25 11:17:13;;;;;;;15.02;12.40;;;4.40;99.90;;;;;;5089888;28;20504;-53
2022/01/25 11:19:43;;;;;;;14.43;10.60;;;4.80;99.90;;;;;;5090818;28;20205;-56
2022/01/25 11:22:17;;;;;;;14.17;9.87;;;4.70;99.90;;;;;;5090786;28;20226;-55
2022/01/25 11:24:49;;;;;;;14.90;10.60;;;4.60;99.90;;;;;;5108588;27;20221;-55
2022/01/25 11:27:18;;;;;;;14.50;10.33;;;4.60;99.90;;;;;;5121689;27;20556;-55
2022/01/25 11:29:52;;;;;;;20.77;14.63;;;4.50;99.90;;;;;;5128020;28;20216;-54
2022/01/25 11:32:25;;;;;;;13.83;10.10;;;4.50;99.90;;;;;;5130324;27;20648;-55
2022/01/25 11:34:54;;;;;;;13.77;10.10;;;4.50;99.90;;;;;;5132684;27;20241;-55
2022/01/25 11:37:34;;;;;;;14.77;10.13;;;4.50;99.90;;;;;;5115087;28;20202;-55
2022/01/25 11:40:04;;;;;;;16.40;10.37;;;4.50;99.90;;;;;;5115298;28;20250;-55
2022/01/25 11:42:36;;;;;;;29.50;21.97;;;4.50;99.90;;;;;;5121620;27;20224;-56
2022/01/25 11:45:12;;;;;;;12.97;8.97;;;4.50;99.90;;;;;;5102709;28;20650;-56
2022/01/25 11:47:40;;;;;;;14.23;9.10;;;4.50;99.90;;;;;;5115250;28;20236;-60
2022/01/25 11:50:11;;;;;;;18.43;14.27;;;4.40;99.90;;;;;;5109970;28;20254;-54
2022/01/25 11:52:49;;;;;;;16.53;10.80;;;4.40;99.90;;;;;;5118063;27;20275;-55
2022/01/25 11:55:23;;;;;;;15.53;10.13;;;4.40;99.90;;;;;;5132350;27;20239;-55
2022/01/25 11:57:56;;;;;;;16.23;12.27;;;4.50;99.90;;;;;;5115120;28;20209;-55
2022/01/25 12:00:38;;;;;;;13.10;9.13;;;4.50;99.90;;;;;;5101627;27;20211;-55
2022/01/25 12:03:26;;;;;;;12.07;8.20;;;4.40;99.90;;;;;;5106997;28;20783;-55
2022/01/25 12:05:59;;;;;;;11.40;8.33;;;4.40;99.90;;;;;;5114540;28;20229;-56
2022/01/25 12:08:39;;;;;;;11.20;7.73;;;4.40;99.90;;;;;;5113718;28;20201;-56
2022/01/25 12:11:28;;;;;;;12.33;8.03;;;4.40;99.90;;;;;;5119262;27;20226;-54
2022/01/25 12:14:16;;;;;;;10.83;7.13;;;4.40;99.90;;;;;;5114640;28;20228;-56
2022/01/25 12:16:47;;;;;;;12.00;7.30;;;4.40;99.90;;;;;;5115203;28;20268;-55
2022/01/25 12:19:17;;;;;;;10.87;7.77;;;4.40;99.90;;;;;;5114235;28;20214;-54
2022/01/25 12:21:58;;;;;;;10.80;8.00;;;4.30;99.90;;;;;;5112678;28;20230;-54
2022/01/25 12:24:31;;;;;;;11.30;7.87;;;4.30;99.90;;;;;;5117387;27;20220;-55
2022/01/25 12:27:06;;;;;;;12.13;8.80;;;4.40;99.90;;;;;;5108262;27;20657;-54
2022/01/25 12:29:38;;;;;;;12.83;8.87;;;4.40;99.90;;;;;;5093335;28;20680;-55
2022/01/25 12:32:26;;;;;;;12.73;8.90;;;4.30;99.90;;;;;;5093403;28;20668;-55
2022/01/25 12:35:07;;;;;;;13.53;8.00;;;4.30;99.90;;;;;;5096559;28;20211;-55
2022/01/25 12:38:11;;;;;;;10.17;7.33;;;4.40;99.90;;;;;;5114767;28;20235;-55
2022/01/25 12:40:52;;;;;;;10.70;7.30;;;4.40;99.90;;;;;;5109624;28;20211;-56
2022/01/25 12:43:23;;;;;;;11.10;7.80;;;4.40;99.90;;;;;;5105510;27;20201;-55
2022/01/25 12:45:54;;;;;;;11.23;8.40;;;4.50;99.90;;;;;;5115585;27;20230;-55
2022/01/25 12:48:27;;;;;;;12.33;7.97;;;4.50;99.90;;;;;;5113712;28;20728;-55
2022/01/25 12:50:58;;;;;;;11.63;8.47;;;4.40;99.90;;;;;;5114475;28;20629;-55
2022/01/25 12:53:29;;;;;;;11.87;8.30;;;4.40;99.90;;;;;;5125046;27;20212;-55
2022/01/25 12:55:59;;;;;;;10.27;7.50;;;4.50;99.90;;;;;;5123819;27;20248;-55
2022/01/25 12:58:29;;;;;;;13.07;7.67;;;4.50;99.90;;;;;;5109356;28;20207;-55
2022/01/25 13:01:00;;;;;;;15.47;7.70;;;4.40;99.90;;;;;;5093356;28;20279;-55
2022/01/25 13:03:32;;;;;;;12.47;8.60;;;4.40;99.90;;;;;;5118684;27;20199;-55
2022/01/25 13:06:06;;;;;;;10.20;7.33;;;4.40;99.90;;;;;;5133208;27;20246;-55
2022/01/25 13:08:39;;;;;;;11.20;7.37;;;4.40;99.90;;;;;;5124199;27;20646;-55
2022/01/25 13:11:22;;;;;;;12.70;7.53;;;4.50;99.90;;;;;;5127149;27;20253;-55
2022/01/25 13:14:01;;;;;;;10.07;7.00;;;4.50;99.90;;;;;;5112790;27;20200;-55
2022/01/25 13:16:48;;;;;;;12.13;7.70;;;4.60;99.90;;;;;;5108083;27;20363;-55
2022/01/25 13:19:21;;;;;;;11.73;7.53;;;4.60;99.90;;;;;;5112530;28;20257;-54
2022/01/25 13:21:53;;;;;;;11.13;7.23;;;4.50;99.90;;;;;;5112963;28;20221;-54
2022/01/25 13:24:37;;;;;;;10.80;7.53;;;4.50;99.90;;;;;;5112945;28;20214;-55
2022/01/25 13:27:10;;;;;;;12.93;7.20;;;4.50;99.90;;;;;;5118345;27;20214;-56
2022/01/25 13:32:30;;;;;;;9.17;6.53;;;4.40;99.90;;;;;;5113140;28;20223;-54
2022/01/25 13:35:18;;;;;;;11.00;6.90;;;4.40;99.90;;;;;;5104919;28;20201;-54
2022/01/25 13:38:02;;;;;;;13.03;7.30;;;4.50;99.90;;;;;;5111707;28;20209;-55
2022/01/25 13:40:37;;;;;;;10.93;7.57;;;4.40;99.90;;;;;;5112372;28;20271;-55
2022/01/25 13:43:30;;;;;;;10.10;7.00;;;4.40;99.90;;;;;;5112550;28;20196;-55
2022/01/25 13:46:04;;;;;;;12.80;8.20;;;4.40;99.90;;;;;;5112684;28;20239;-55
2022/01/25 13:48:34;;;;;;;11.80;8.00;;;4.30;99.90;;;;;;5108768;28;20733;-55
2022/01/25 13:51:05;;;;;;;12.07;8.27;;;4.30;99.90;;;;;;5100275;28;20843;-55
2022/01/25 13:53:35;;;;;;;11.37;8.20;;;4.30;99.90;;;;;;5123113;27;20222;-54
2022/01/25 13:56:05;;;;;;;14.33;11.60;;;4.30;99.90;;;;;;5132581;27;20620;-55
2022/01/25 13:58:35;;;;;;;12.53;7.70;;;4.40;99.90;;;;;;5132752;27;20230;-54
2022/01/25 14:01:05;;;;;;;12.77;7.47;;;4.40;99.90;;;;;;5122819;27;20605;-55
2022/01/25 14:03:37;;;;;;;14.67;11.77;;;4.40;99.90;;;;;;5133278;27;20366;-55
2022/01/25 14:09:05;;;;;;;14.70;11.10;;;4.40;99.90;;;;;;5103762;27;20666;-55
2022/01/25 14:11:50;;;;;;;14.13;10.90;;;4.30;99.90;;;;;;5107733;28;20282;-55
2022/01/25 14:23:17;;;;;;;9.97;7.43;;;4.30;99.90;;;;;;5087864;28;20225;-55
2022/01/25 14:25:47;;;;;;;16.20;11.63;;;4.30;99.90;;;;;;5087956;28;20270;-55
2022/01/25 14:28:19;;;;;;;15.77;9.53;;;4.30;99.90;;;;;;5087991;28;20719;-53
2022/01/25 14:30:48;;;;;;;13.37;9.60;;;4.30;99.90;;;;;;5086788;28;20256;-55
2022/01/25 14:33:18;;;;;;;16.23;10.60;;;4.20;99.90;;;;;;5090903;28;20245;-56
2022/01/25 14:35:48;;;;;;;28.27;21.17;;;4.20;99.90;;;;;;5099021;28;20250;-53